createdAt,value
2023-07-25T10:05:21.756Z,22.50
2023-07-25T10:07:51.481Z,22.50
2023-07-25T10:10:20.049Z,22.80
2023-07-25T10:12:48.347Z,22.90
2023-07-25T10:15:16.896Z,23.10
2023-07-25T10:17:47.815Z,23.40
2023-07-25T10:20:23.015Z,23.60
2023-07-25T10:22:51.736Z,23.90
2023-07-25T10:25:21.502Z,24.10
2023-07-25T10:27:54.771Z,24.50
2023-07-25T10:30:24.821Z,24.20
2023-07-25T10:32:58.065Z,24.10
2023-07-25T10:35:44.788Z,23.30
2023-07-25T10:38:14.716Z,23.20
2023-07-25T10:40:57.399Z,23.20
2023-07-25T10:43:29.456Z,22.60
2023-07-25T10:46:01.101Z,22.50
2023-07-25T10:48:35.640Z,22.50
2023-07-25T10:51:07.752Z,22.30
2023-07-25T10:53:36.832Z,22.00
2023-07-25T10:56:15.322Z,21.80
2023-07-25T10:59:06.534Z,21.70
2023-07-25T11:01:41.000Z,21.80
2023-07-25T11:04:28.512Z,21.70
2023-07-25T11:06:58.175Z,21.50
2023-07-25T11:09:28.252Z,21.60
2023-07-25T11:11:58.190Z,21.60
2023-07-25T11:14:26.388Z,21.50
2023-07-25T11:16:56.229Z,21.30
2023-07-25T11:19:29.824Z,21.40
2023-07-25T11:21:58.166Z,21.30
2023-07-25T11:24:26.539Z,21.20
2023-07-25T11:26:54.698Z,21.30
2023-07-25T11:29:24.096Z,21.20
2023-07-25T11:31:52.303Z,21.20
2023-07-25T11:34:21.643Z,21.20
2023-07-25T11:36:51.150Z,21.30
2023-07-25T11:39:20.200Z,21.30
2023-07-25T11:41:48.420Z,21.40
2023-07-25T11:44:18.364Z,21.50
2023-07-25T11:46:52.035Z,21.70
2023-07-25T11:49:36.386Z,22.00
2023-07-25T11:52:11.378Z,22.00
2023-07-25T11:54:39.857Z,22.60
2023-07-25T12:02:10.846Z,24.40
2023-07-25T12:07:15.429Z,24.30
2023-07-25T12:12:19.564Z,24.80
2023-07-25T12:15:03.119Z,25.30
2023-07-25T12:20:19.487Z,26.10
2023-07-25T12:22:48.788Z,26.70
2023-07-25T12:25:20.675Z,26.50
2023-07-25T12:27:50.470Z,26.10
2023-07-25T12:30:18.785Z,26.30
2023-07-25T12:35:15.464Z,27.10
2023-07-25T12:37:43.626Z,26.70
2023-07-25T12:42:41.953Z,26.30
2023-07-25T12:45:11.284Z,26.00
2023-07-25T12:47:39.895Z,25.90
2023-07-25T12:50:09.808Z,26.10
2023-07-25T12:52:38.259Z,26.50
2023-07-25T12:55:06.832Z,26.00
2023-07-25T12:57:36.643Z,25.60
2023-07-25T13:00:08.557Z,26.10
2023-07-25T13:02:37.842Z,26.20
2023-07-25T13:05:07.279Z,26.30
2023-07-25T13:07:36.354Z,25.80
2023-07-25T13:10:07.429Z,26.40
2023-07-25T13:12:37.062Z,26.50
2023-07-25T13:15:06.080Z,26.80
2023-07-25T13:17:35.043Z,26.60
2023-07-25T13:20:04.786Z,26.90
2023-07-25T13:22:32.962Z,26.50
2023-07-25T13:25:01.144Z,26.30
2023-07-25T13:27:29.463Z,25.60
2023-07-25T13:29:59.558Z,25.50
2023-07-25T13:32:27.931Z,25.30
2023-07-25T13:34:56.218Z,25.90
2023-07-25T13:37:24.365Z,26.20
2023-07-25T13:39:52.440Z,25.80
2023-07-25T13:42:23.527Z,25.70
2023-07-25T13:44:51.669Z,25.60
2023-07-25T13:47:21.158Z,25.40
2023-07-25T13:49:49.462Z,25.90
2023-07-25T13:52:17.562Z,25.80
2023-07-25T13:54:45.685Z,25.70
2023-07-25T13:57:13.837Z,25.10
2023-07-25T13:59:41.948Z,25.40
2023-07-25T14:02:10.754Z,25.80
2023-07-25T14:04:41.064Z,25.90
2023-07-25T14:07:09.737Z,26.50
2023-07-25T14:09:37.906Z,27.00
2023-07-25T14:12:07.058Z,27.30
2023-07-25T14:26:59.584Z,27.60
2023-07-25T14:31:56.133Z,26.60
2023-07-25T14:34:25.169Z,27.10
2023-07-25T14:36:53.980Z,27.60
2023-07-25T14:39:23.475Z,27.80
2023-07-25T14:41:51.632Z,27.80
2023-07-25T14:44:19.792Z,27.60
2023-07-25T14:46:48.023Z,27.40
2023-07-25T14:49:16.235Z,27.80
2023-07-25T14:51:44.498Z,27.70
2023-07-25T14:54:12.628Z,27.70
2023-07-25T14:56:42.151Z,26.90
2023-07-25T14:59:10.296Z,27.20
2023-07-25T15:01:38.547Z,27.40
2023-07-25T15:04:07.033Z,27.60
2023-07-25T15:06:35.308Z,27.70
2023-07-25T15:09:03.502Z,27.80
2023-07-25T15:11:32.073Z,27.80
2023-07-25T15:14:01.653Z,27.70
2023-07-25T15:16:30.827Z,27.90
2023-07-25T15:18:59.181Z,28.10
2023-07-25T15:21:28.194Z,27.90
2023-07-25T15:23:56.293Z,27.20
2023-07-25T15:26:24.468Z,27.30
2023-07-25T15:28:52.680Z,27.00
2023-07-25T15:31:22.447Z,27.30
2023-07-25T15:33:51.018Z,27.50
2023-07-25T15:36:19.217Z,27.40
2023-07-25T15:38:47.533Z,27.40
2023-07-25T15:41:15.673Z,27.20
2023-07-25T15:43:43.803Z,26.90
2023-07-25T15:46:11.933Z,26.70
2023-07-25T15:48:41.462Z,27.10
2023-07-25T15:51:09.657Z,27.30
2023-07-25T15:53:37.806Z,27.30
2023-07-25T15:56:06.234Z,27.30
2023-07-25T15:58:34.321Z,27.30
2023-07-25T16:01:02.859Z,27.10
2023-07-25T16:03:31.097Z,27.30
2023-07-25T16:06:00.673Z,26.80
2023-07-25T16:08:28.767Z,26.60
2023-07-25T16:10:57.227Z,26.60
2023-07-25T16:13:25.422Z,26.60
2023-07-25T16:15:53.574Z,26.50
2023-07-25T16:18:21.840Z,26.40
2023-07-25T16:20:51.358Z,26.70
2023-07-25T16:23:21.063Z,26.50
2023-07-25T16:25:49.270Z,26.70
2023-07-25T16:28:17.440Z,26.60
2023-07-25T16:30:45.639Z,26.40
2023-07-25T16:33:13.746Z,26.30
2023-07-25T16:35:42.572Z,26.40
2023-07-25T16:38:11.018Z,26.20
2023-07-25T16:40:40.497Z,26.40
2023-07-25T16:43:08.775Z,26.00
2023-07-25T16:45:36.887Z,25.90
2023-07-25T16:48:05.453Z,25.70
2023-07-25T16:50:33.763Z,25.40
2023-07-25T16:53:02.240Z,25.40
2023-07-25T16:55:30.464Z,25.60
2023-07-25T16:57:59.945Z,25.70
2023-07-25T17:00:28.652Z,25.60
2023-07-25T17:02:56.856Z,25.50
2023-07-25T17:10:25.964Z,25.00
2023-07-25T17:12:54.289Z,25.00
2023-07-25T17:15:23.776Z,25.00
2023-07-25T17:20:23.115Z,25.00
2023-07-25T17:22:51.784Z,25.10
2023-07-25T17:25:20.561Z,24.80
2023-07-25T17:27:48.680Z,24.60
2023-07-25T17:30:17.297Z,24.20
2023-07-25T17:32:46.939Z,24.00
2023-07-25T17:35:23.991Z,23.90
2023-07-25T17:38:00.042Z,23.70
2023-07-25T17:40:28.203Z,23.50
2023-07-25T17:42:56.328Z,23.50
2023-07-25T17:55:19.653Z,23.90
2023-07-25T17:57:47.722Z,23.70
2023-07-25T18:00:16.199Z,23.50
2023-07-25T18:02:44.415Z,23.50
2023-07-25T18:05:14.068Z,23.40
2023-07-25T18:07:42.200Z,23.30
2023-07-25T18:10:10.792Z,23.10
2023-07-25T18:12:38.934Z,22.90
2023-07-25T18:15:08.053Z,23.10
2023-07-25T18:17:36.244Z,22.80
2023-07-25T18:20:04.723Z,22.70
2023-07-25T18:22:34.235Z,22.60
2023-07-25T18:25:02.504Z,22.60
2023-07-25T18:27:30.788Z,22.60
2023-07-25T18:29:58.914Z,22.50
2023-07-25T18:32:27.152Z,22.40
2023-07-25T18:34:55.354Z,22.40
2023-07-25T18:37:23.499Z,22.30
2023-07-25T18:39:53.047Z,22.10
2023-07-25T18:42:21.161Z,22.10
2023-07-25T18:44:49.422Z,22.10
2023-07-25T18:47:33.740Z,22.00
2023-07-25T18:50:03.173Z,22.00
2023-07-25T18:52:31.384Z,21.90
2023-07-25T18:55:00.867Z,21.80
2023-07-25T18:57:29.009Z,21.80
2023-07-25T18:59:57.647Z,21.90
2023-07-25T19:02:25.967Z,21.70
2023-07-25T19:04:54.108Z,21.70
2023-07-25T19:07:22.277Z,21.60
2023-07-25T19:09:50.632Z,21.50
2023-07-25T19:12:20.208Z,21.40
2023-07-25T19:14:48.329Z,21.50
2023-07-25T19:17:16.486Z,21.40
2023-07-25T19:19:44.607Z,21.40
2023-07-25T19:22:13.108Z,21.40
2023-07-25T19:24:41.300Z,21.30
2023-07-25T19:27:09.647Z,21.20
2023-07-25T19:29:39.129Z,21.10
2023-07-25T19:32:08.418Z,20.90
2023-07-25T19:34:37.319Z,20.90
2023-07-25T19:37:05.891Z,20.90
2023-07-25T19:39:34.580Z,20.80
2023-07-25T19:42:02.777Z,20.90
2023-07-25T19:44:33.004Z,20.70
2023-07-25T19:47:04.644Z,20.70
2023-07-25T19:49:34.021Z,20.90
2023-07-25T19:52:02.120Z,20.70
2023-07-25T19:54:30.621Z,20.80
2023-07-25T20:06:54.016Z,20.50
2023-07-25T20:09:22.171Z,20.50
2023-07-25T20:11:50.309Z,20.50
2023-07-25T20:14:18.516Z,20.20
2023-07-25T20:16:46.713Z,20.10
2023-07-25T20:44:05.611Z,19.80
2023-07-25T20:46:34.145Z,19.80
2023-07-25T20:49:04.062Z,19.60
2023-07-25T20:51:32.184Z,19.60
2023-07-25T20:54:00.356Z,19.60
2023-07-25T20:56:30.309Z,19.50
2023-07-25T20:58:58.678Z,19.50
2023-07-25T21:16:20.574Z,19.40
2023-07-25T21:23:45.550Z,19.10
2023-07-25T21:26:13.783Z,19.20
2023-07-25T21:28:41.920Z,19.00
2023-07-25T21:31:12.183Z,19.00
2023-07-25T21:33:40.376Z,18.90
2023-07-25T21:36:10.481Z,19.00
2023-07-25T21:38:38.938Z,19.00
2023-07-25T21:43:36.896Z,18.70
2023-07-25T21:46:05.040Z,18.90
2023-07-25T21:48:34.558Z,18.80
2023-07-25T21:51:02.837Z,18.80
2023-07-25T21:53:31.706Z,18.70
2023-07-25T21:56:00.549Z,18.70
2023-07-25T22:03:29.074Z,18.70
2023-07-25T22:06:00.049Z,18.60
2023-07-25T22:08:28.203Z,18.40
2023-07-25T22:10:56.825Z,18.60
2023-07-25T22:13:25.813Z,18.50
2023-07-25T22:15:54.282Z,18.50
2023-07-25T22:18:22.428Z,18.50
2023-07-25T22:20:52.821Z,18.40
2023-07-25T22:23:23.051Z,18.30
2023-07-25T22:43:12.421Z,18.40
2023-07-25T22:45:40.729Z,17.90
2023-07-25T23:00:32.563Z,17.80
2023-07-25T23:03:01.006Z,17.80
2023-07-25T23:05:29.173Z,17.70
2023-07-25T23:10:25.944Z,17.80
2023-07-25T23:35:14.947Z,17.70
2023-07-25T23:37:43.055Z,17.70
2023-07-25T23:40:13.077Z,17.50
2023-07-25T23:42:41.173Z,17.60
2023-07-25T23:45:10.091Z,17.50
2023-07-25T23:47:38.252Z,17.40
2023-07-25T23:50:08.546Z,17.50
2023-07-25T23:52:36.908Z,17.60
2023-07-25T23:55:05.477Z,17.30
2023-07-25T23:57:33.599Z,17.40
